Lebanon, Maine
Current Conditions -  °F | °C
As of 2:15 PM on Friday 24 Oct 2014 (Local Time) from KSFM Reporting Station
Overcast Overcast  
Wind Chill: 52°   Ceiling: 1900
Heat Index: 52°   Visibility: 10mi
Dew Point: 45°   Wind: 9mph
Humidity: 76%   Direction: 340°NNW
Pressure: 29.67"   Gusts: NA
Location:  43.39°N, 70.85°W
Report Text: KSFM 241815Z AUTO 34008KT 10SM BKN019 OVC025 11/07 A2967 RMK AO1
Loading
Personal Weather Stations






























Interactive Weather Map
Tropical Storm Tracking
New forecast layout! Learn more

10-Day Weather Forecast

Advertisements
Track Severe Weather on mobile